NOAA Weather Radio

Lightning Safety

Turn Around Don't Drown
Storm Ready
SkyWarn
WACO REGIONAL AIRPORT, TX, United States (KACT) 31-36N 97-13W 151M
Nov 27, 2014 - 10:51 AM EST / 2014.11.27 1551 UTC
Wind: from the NE (040 degrees) at 10 MPH (9 KT):0
Visibility: 10 mile(s):0
Sky conditions: clear
Temperature: 48.9 F (9.4 C)
Dew Point: 28.9 F (-1.7 C)
Relative Humidity: 45%
Pressure (altimeter): 30.55 in. Hg (1034 hPa)
ob: KACT 271551Z 04009KT 10SM CLR 09/M02 A3055 RMK AO2 SLP345 T00941017
cycle: 16